TimeCDT,TemperatureF,Dew PointF,Humidity,Sea Level PressureIn,VisibilityMPH,Wind Direction,Wind SpeedMPH,Gust SpeedMPH,PrecipitationIn,Events,Conditions,WindDirDegrees,DateUTC
12:53 AM,37.9,30.0,73,30.27,10.0,North,5.8,-,N/A,,Clear,350,2013-03-20 05:53:00
1:53 AM,36.0,30.9,82,30.27,10.0,NNW,3.5,-,N/A,,Clear,340,2013-03-20 06:53:00
2:53 AM,33.1,28.9,85,30.29,10.0,NNW,5.8,-,N/A,,Clear,330,2013-03-20 07:53:00
3:53 AM,34.0,30.0,85,30.27,10.0,NNW,4.6,-,N/A,,Clear,330,2013-03-20 08:53:00
4:53 AM,33.1,30.0,89,30.27,10.0,NW,3.5,-,N/A,,Clear,310,2013-03-20 09:53:00
5:53 AM,30.0,28.0,92,30.30,10.0,NNW,5.8,-,N/A,,Clear,330,2013-03-20 10:53:00
6:53 AM,30.9,28.9,92,30.33,10.0,NNW,5.8,-,N/A,,Clear,330,2013-03-20 11:53:00
7:53 AM,32.0,30.0,92,30.36,9.0,North,5.8,-,N/A,,Clear,350,2013-03-20 12:53:00
8:53 AM,37.9,33.1,83,30.40,10.0,NNW,11.5,-,N/A,,Partly Cloudy,340,2013-03-20 13:53:00
9:22 AM,39.0,33.1,79,30.40,10.0,North,19.6,25.3,N/A,,Mostly Cloudy,350,2013-03-20 14:22:00
9:42 AM,39.0,32.0,76,30.41,10.0,North,15.0,-,N/A,,Scattered Clouds,10,2013-03-20 14:42:00
9:47 AM,39.2,32.0,75,30.41,10.0,North,10.4,-,N/A,,Mostly Cloudy,360,2013-03-20 14:47:00
9:53 AM,41.0,32.0,70,30.42,10.0,NNE,11.5,-,N/A,,Scattered Clouds,20,2013-03-20 14:53:00
10:53 AM,44.1,25.0,47,30.41,10.0,North,13.8,-,N/A,,Clear,360,2013-03-20 15:53:00
11:53 AM,46.9,19.0,33,30.39,10.0,North,12.7,20.7,N/A,,Clear,10,2013-03-20 16:53:00
12:53 PM,48.0,21.0,34,30.38,10.0,North,12.7,18.4,N/A,,Clear,350,2013-03-20 17:53:00
1:53 PM,48.9,21.0,33,30.34,10.0,NE,6.9,-,N/A,,Clear,40,2013-03-20 18:53:00
2:53 PM,50.0,19.9,31,30.30,10.0,NE,5.8,18.4,N/A,,Clear,40,2013-03-20 19:53:00
3:53 PM,51.1,19.9,29,30.25,10.0,North,9.2,-,N/A,,Clear,360,2013-03-20 20:53:00
4:53 PM,52.0,19.9,28,30.22,10.0,Variable,4.6,-,N/A,,Clear,0,2013-03-20 21:53:00
5:53 PM,50.0,19.0,29,30.20,10.0,ENE,5.8,-,N/A,,Clear,70,2013-03-20 22:53:00
6:53 PM,48.0,18.0,30,30.17,10.0,East,5.8,-,N/A,,Clear,90,2013-03-20 23:53:00
7:53 PM,45.0,19.9,37,30.16,10.0,East,6.9,-,N/A,,Clear,90,2013-03-21 00:53:00
8:53 PM,45.0,19.0,36,30.14,10.0,ENE,4.6,-,N/A,,Clear,70,2013-03-21 01:53:00
9:53 PM,43.0,19.0,38,30.14,10.0,East,6.9,-,N/A,,Clear,90,2013-03-21 02:53:00
10:53 PM,42.1,19.9,41,30.12,10.0,East,8.1,-,N/A,,Clear,90,2013-03-21 03:53:00
11:53 PM,42.1,19.9,41,30.09,10.0,East,10.4,-,N/A,,Clear,100,2013-03-21 04:53:00